sensor_id;sensor_type;location;lat;lon;timestamp;P1;durP1;ratioP1;P2;durP2;ratioP2
5951;SDS011;3001;42.622;23.194;2022-07-06T00:01:43;7.63;;;7.03;;
5951;SDS011;3001;42.622;23.194;2022-07-06T00:04:10;8.07;;;7.67;;
5951;SDS011;3001;42.622;23.194;2022-07-06T00:06:37;9.47;;;8.63;;
5951;SDS011;3001;42.622;23.194;2022-07-06T00:09:04;9.50;;;8.80;;
5951;SDS011;3001;42.622;23.194;2022-07-06T00:11:32;9.57;;;8.77;;
5951;SDS011;3001;42.622;23.194;2022-07-06T00:14:00;9.63;;;8.80;;
5951;SDS011;3001;42.622;23.194;2022-07-06T00:16:27;9.73;;;8.80;;
5951;SDS011;3001;42.622;23.194;2022-07-06T00:18:54;10.47;;;9.23;;
5951;SDS011;3001;42.622;23.194;2022-07-06T00:21:21;9.13;;;8.63;;
5951;SDS011;3001;42.622;23.194;2022-07-06T00:23:48;9.37;;;8.47;;
5951;SDS011;3001;42.622;23.194;2022-07-06T00:26:16;11.87;;;8.97;;
5951;SDS011;3001;42.622;23.194;2022-07-06T00:28:43;8.90;;;8.13;;
5951;SDS011;3001;42.622;23.194;2022-07-06T00:31:12;8.60;;;8.00;;
5951;SDS011;3001;42.622;23.194;2022-07-06T00:33:39;9.27;;;8.77;;
5951;SDS011;3001;42.622;23.194;2022-07-06T00:36:05;10.10;;;9.27;;
5951;SDS011;3001;42.622;23.194;2022-07-06T00:38:32;9.77;;;9.10;;
5951;SDS011;3001;42.622;23.194;2022-07-06T00:40:59;10.20;;;9.50;;
5951;SDS011;3001;42.622;23.194;2022-07-06T00:43:26;11.13;;;9.87;;
5951;SDS011;3001;42.622;23.194;2022-07-06T00:45:52;10.07;;;9.47;;
5951;SDS011;3001;42.622;23.194;2022-07-06T00:48:21;10.90;;;10.30;;
5951;SDS011;3001;42.622;23.194;2022-07-06T00:50:47;10.90;;;9.90;;
5951;SDS011;3001;42.622;23.194;2022-07-06T00:53:14;11.13;;;10.27;;
5951;SDS011;3001;42.622;23.194;2022-07-06T00:55:41;10.10;;;9.10;;
5951;SDS011;3001;42.622;23.194;2022-07-06T00:58:09;10.03;;;9.43;;
5951;SDS011;3001;42.622;23.194;2022-07-06T01:00:36;10.93;;;9.80;;
5951;SDS011;3001;42.622;23.194;2022-07-06T01:03:03;11.03;;;10.23;;
5951;SDS011;3001;42.622;23.194;2022-07-06T01:05:31;11.90;;;10.90;;
5951;SDS011;3001;42.622;23.194;2022-07-06T01:07:58;10.93;;;9.93;;
5951;SDS011;3001;42.622;23.194;2022-07-06T01:10:26;10.87;;;9.90;;
5951;SDS011;3001;42.622;23.194;2022-07-06T01:12:53;10.30;;;9.50;;
5951;SDS011;3001;42.622;23.194;2022-07-06T01:15:21;10.93;;;10.10;;
5951;SDS011;3001;42.622;23.194;2022-07-06T01:17:49;11.50;;;10.33;;
5951;SDS011;3001;42.622;23.194;2022-07-06T01:20:18;10.20;;;9.43;;
5951;SDS011;3001;42.622;23.194;2022-07-06T01:22:46;11.63;;;10.67;;
5951;SDS011;3001;42.622;23.194;2022-07-06T01:25:14;12.03;;;11.00;;
5951;SDS011;3001;42.622;23.194;2022-07-06T01:27:41;13.90;;;12.60;;
5951;SDS011;3001;42.622;23.194;2022-07-06T01:30:09;11.83;;;10.80;;
5951;SDS011;3001;42.622;23.194;2022-07-06T01:32:38;12.60;;;11.33;;
5951;SDS011;3001;42.622;23.194;2022-07-06T01:35:05;13.40;;;11.53;;
5951;SDS011;3001;42.622;23.194;2022-07-06T01:37:35;12.90;;;11.57;;
5951;SDS011;3001;42.622;23.194;2022-07-06T01:40:02;13.30;;;10.77;;
5951;SDS011;3001;42.622;23.194;2022-07-06T01:42:30;14.60;;;13.20;;
5951;SDS011;3001;42.622;23.194;2022-07-06T01:44:57;15.57;;;13.53;;
5951;SDS011;3001;42.622;23.194;2022-07-06T01:47:24;14.10;;;12.40;;
5951;SDS011;3001;42.622;23.194;2022-07-06T01:49:51;12.47;;;11.40;;
5951;SDS011;3001;42.622;23.194;2022-07-06T01:52:18;11.50;;;10.57;;
5951;SDS011;3001;42.622;23.194;2022-07-06T01:54:46;10.27;;;9.57;;
5951;SDS011;3001;42.622;23.194;2022-07-06T01:57:13;11.10;;;10.13;;
5951;SDS011;3001;42.622;23.194;2022-07-06T01:59:40;11.63;;;10.80;;
5951;SDS011;3001;42.622;23.194;2022-07-06T02:02:06;10.33;;;9.40;;
5951;SDS011;3001;42.622;23.194;2022-07-06T02:04:33;9.93;;;9.07;;
5951;SDS011;3001;42.622;23.194;2022-07-06T02:07:00;9.93;;;9.30;;
5951;SDS011;3001;42.622;23.194;2022-07-06T02:09:27;10.17;;;9.37;;
5951;SDS011;3001;42.622;23.194;2022-07-06T02:11:55;9.67;;;8.80;;
5951;SDS011;3001;42.622;23.194;2022-07-06T02:14:22;9.30;;;8.60;;
5951;SDS011;3001;42.622;23.194;2022-07-06T02:16:49;9.13;;;8.40;;
5951;SDS011;3001;42.622;23.194;2022-07-06T02:19:16;10.33;;;9.47;;
5951;SDS011;3001;42.622;23.194;2022-07-06T02:21:42;10.00;;;8.83;;
5951;SDS011;3001;42.622;23.194;2022-07-06T02:24:09;8.23;;;7.83;;
5951;SDS011;3001;42.622;23.194;2022-07-06T02:26:36;9.90;;;8.97;;
5951;SDS011;3001;42.622;23.194;2022-07-06T02:29:04;9.17;;;8.57;;
5951;SDS011;3001;42.622;23.194;2022-07-06T02:31:31;9.97;;;9.10;;
5951;SDS011;3001;42.622;23.194;2022-07-06T02:33:57;10.87;;;9.90;;
5951;SDS011;3001;42.622;23.194;2022-07-06T02:36:24;9.50;;;8.80;;
5951;SDS011;3001;42.622;23.194;2022-07-06T02:38:51;10.60;;;9.60;;
5951;SDS011;3001;42.622;23.194;2022-07-06T02:41:18;10.00;;;9.40;;
5951;SDS011;3001;42.622;23.194;2022-07-06T02:43:44;9.83;;;9.00;;
5951;SDS011;3001;42.622;23.194;2022-07-06T02:46:13;10.70;;;9.80;;
5951;SDS011;3001;42.622;23.194;2022-07-06T02:48:39;22.00;;;11.60;;
5951;SDS011;3001;42.622;23.194;2022-07-06T02:51:06;12.10;;;11.10;;
5951;SDS011;3001;42.622;23.194;2022-07-06T02:53:33;12.77;;;11.77;;
5951;SDS011;3001;42.622;23.194;2022-07-06T02:56:00;11.97;;;10.97;;
5951;SDS011;3001;42.622;23.194;2022-07-06T02:58:26;12.23;;;11.23;;
5951;SDS011;3001;42.622;23.194;2022-07-06T03:00:53;11.93;;;11.00;;
5951;SDS011;3001;42.622;23.194;2022-07-06T03:03:21;11.07;;;10.27;;
5951;SDS011;3001;42.622;23.194;2022-07-06T03:05:48;12.40;;;9.93;;
5951;SDS011;3001;42.622;23.194;2022-07-06T03:08:15;11.83;;;10.83;;
5951;SDS011;3001;42.622;23.194;2022-07-06T03:10:42;12.47;;;11.40;;
5951;SDS011;3001;42.622;23.194;2022-07-06T03:13:08;11.60;;;10.53;;
5951;SDS011;3001;42.622;23.194;2022-07-06T03:15:35;15.77;;;10.83;;
5951;SDS011;3001;42.622;23.194;2022-07-06T03:18:02;11.50;;;10.47;;
5951;SDS011;3001;42.622;23.194;2022-07-06T03:20:30;11.63;;;10.80;;
5951;SDS011;3001;42.622;23.194;2022-07-06T03:22:57;11.57;;;10.77;;
5951;SDS011;3001;42.622;23.194;2022-07-06T03:25:24;10.50;;;9.73;;
5951;SDS011;3001;42.622;23.194;2022-07-06T03:27:51;11.57;;;10.43;;
5951;SDS011;3001;42.622;23.194;2022-07-06T03:30:17;11.70;;;10.37;;
5951;SDS011;3001;42.622;23.194;2022-07-06T03:32:44;11.37;;;10.57;;
5951;SDS011;3001;42.622;23.194;2022-07-06T03:35:11;11.17;;;10.20;;
5951;SDS011;3001;42.622;23.194;2022-07-06T03:37:39;11.13;;;10.07;;
5951;SDS011;3001;42.622;23.194;2022-07-06T03:40:06;11.70;;;10.33;;
5951;SDS011;3001;42.622;23.194;2022-07-06T03:42:34;11.57;;;10.67;;
5951;SDS011;3001;42.622;23.194;2022-07-06T03:45:02;10.30;;;9.57;;
5951;SDS011;3001;42.622;23.194;2022-07-06T03:47:29;10.37;;;9.47;;
5951;SDS011;3001;42.622;23.194;2022-07-06T03:49:56;10.20;;;9.40;;
5951;SDS011;3001;42.622;23.194;2022-07-06T03:52:23;9.57;;;8.80;;
5951;SDS011;3001;42.622;23.194;2022-07-06T03:54:51;10.00;;;8.43;;
5951;SDS011;3001;42.622;23.194;2022-07-06T03:57:18;8.63;;;7.83;;
5951;SDS011;3001;42.622;23.194;2022-07-06T03:59:44;7.50;;;6.93;;
5951;SDS011;3001;42.622;23.194;2022-07-06T04:02:11;7.30;;;6.80;;
5951;SDS011;3001;42.622;23.194;2022-07-06T04:04:38;7.83;;;7.33;;
5951;SDS011;3001;42.622;23.194;2022-07-06T04:07:05;8.03;;;6.87;;
5951;SDS011;3001;42.622;23.194;2022-07-06T04:09:31;8.53;;;7.93;;
5951;SDS011;3001;42.622;23.194;2022-07-06T04:11:59;9.00;;;7.47;;
5951;SDS011;3001;42.622;23.194;2022-07-06T04:14:26;7.80;;;7.10;;
5951;SDS011;3001;42.622;23.194;2022-07-06T04:16:53;8.20;;;7.43;;
5951;SDS011;3001;42.622;23.194;2022-07-06T04:19:20;8.20;;;7.40;;
5951;SDS011;3001;42.622;23.194;2022-07-06T04:21:46;7.37;;;6.87;;
5951;SDS011;3001;42.622;23.194;2022-07-06T04:24:13;7.60;;;7.00;;
5951;SDS011;3001;42.622;23.194;2022-07-06T04:26:40;7.80;;;7.00;;
5951;SDS011;3001;42.622;23.194;2022-07-06T04:29:08;7.13;;;6.53;;
5951;SDS011;3001;42.622;23.194;2022-07-06T04:31:35;6.97;;;6.43;;
5951;SDS011;3001;42.622;23.194;2022-07-06T04:34:02;9.33;;;6.90;;
5951;SDS011;3001;42.622;23.194;2022-07-06T04:36:29;6.80;;;6.40;;
5951;SDS011;3001;42.622;23.194;2022-07-06T04:38:55;8.40;;;6.50;;
5951;SDS011;3001;42.622;23.194;2022-07-06T04:41:22;7.10;;;6.50;;
5951;SDS011;3001;42.622;23.194;2022-07-06T04:43:49;8.90;;;7.90;;
5951;SDS011;3001;42.622;23.194;2022-07-06T04:46:17;10.97;;;6.73;;
5951;SDS011;3001;42.622;23.194;2022-07-06T04:48:44;9.80;;;7.20;;
5951;SDS011;3001;42.622;23.194;2022-07-06T04:51:11;8.00;;;7.23;;
5951;SDS011;3001;42.622;23.194;2022-07-06T04:53:39;12.20;;;7.80;;
5951;SDS011;3001;42.622;23.194;2022-07-06T04:56:05;8.20;;;7.50;;
5951;SDS011;3001;42.622;23.194;2022-07-06T04:58:32;8.30;;;7.50;;
5951;SDS011;3001;42.622;23.194;2022-07-06T05:00:59;8.40;;;7.70;;
5951;SDS011;3001;42.622;23.194;2022-07-06T05:03:27;7.77;;;7.17;;
5951;SDS011;3001;42.622;23.194;2022-07-06T05:05:54;9.17;;;8.27;;
5951;SDS011;3001;42.622;23.194;2022-07-06T05:08:21;8.37;;;7.60;;
5951;SDS011;3001;42.622;23.194;2022-07-06T05:10:47;7.17;;;6.60;;
5951;SDS011;3001;42.622;23.194;2022-07-06T05:13:14;7.10;;;6.60;;
5951;SDS011;3001;42.622;23.194;2022-07-06T05:15:41;8.50;;;7.73;;
5951;SDS011;3001;42.622;23.194;2022-07-06T05:18:08;8.03;;;7.37;;
5951;SDS011;3001;42.622;23.194;2022-07-06T05:20:36;8.13;;;7.60;;
5951;SDS011;3001;42.622;23.194;2022-07-06T05:23:03;10.00;;;8.20;;
5951;SDS011;3001;42.622;23.194;2022-07-06T05:25:30;8.73;;;7.83;;
5951;SDS011;3001;42.622;23.194;2022-07-06T05:27:57;8.90;;;8.20;;
5951;SDS011;3001;42.622;23.194;2022-07-06T05:30:24;8.70;;;8.00;;
5951;SDS011;3001;42.622;23.194;2022-07-06T05:32:51;8.87;;;8.27;;
5951;SDS011;3001;42.622;23.194;2022-07-06T05:35:18;9.87;;;8.97;;
5951;SDS011;3001;42.622;23.194;2022-07-06T05:37:46;8.80;;;8.07;;
5951;SDS011;3001;42.622;23.194;2022-07-06T05:40:13;9.10;;;8.30;;
5951;SDS011;3001;42.622;23.194;2022-07-06T05:42:39;8.53;;;8.03;;
5951;SDS011;3001;42.622;23.194;2022-07-06T05:45:07;8.73;;;8.13;;
5951;SDS011;3001;42.622;23.194;2022-07-06T05:47:34;9.83;;;8.97;;
5951;SDS011;3001;42.622;23.194;2022-07-06T05:50:18;8.67;;;7.90;;
5951;SDS011;3001;42.622;23.194;2022-07-06T05:52:50;8.97;;;8.17;;
5951;SDS011;3001;42.622;23.194;2022-07-06T05:55:24;10.93;;;8.93;;
5951;SDS011;3001;42.622;23.194;2022-07-06T05:57:51;13.00;;;9.40;;
5951;SDS011;3001;42.622;23.194;2022-07-06T06:00:19;9.47;;;8.67;;
5951;SDS011;3001;42.622;23.194;2022-07-06T06:02:46;9.83;;;9.03;;
5951;SDS011;3001;42.622;23.194;2022-07-06T06:05:14;8.67;;;8.07;;
5951;SDS011;3001;42.622;23.194;2022-07-06T06:07:41;8.77;;;8.10;;
5951;SDS011;3001;42.622;23.194;2022-07-06T06:10:11;12.77;;;9.53;;
5951;SDS011;3001;42.622;23.194;2022-07-06T06:12:39;9.83;;;8.90;;
5951;SDS011;3001;42.622;23.194;2022-07-06T06:15:07;10.27;;;9.37;;
5951;SDS011;3001;42.622;23.194;2022-07-06T06:17:35;8.87;;;8.10;;
5951;SDS011;3001;42.622;23.194;2022-07-06T06:20:03;9.43;;;8.50;;
5951;SDS011;3001;42.622;23.194;2022-07-06T06:22:31;9.37;;;8.67;;
5951;SDS011;3001;42.622;23.194;2022-07-06T06:25:11;9.60;;;8.90;;
5951;SDS011;3001;42.622;23.194;2022-07-06T06:27:37;9.17;;;8.57;;
5951;SDS011;3001;42.622;23.194;2022-07-06T06:30:05;10.10;;;9.20;;
5951;SDS011;3001;42.622;23.194;2022-07-06T06:32:32;10.60;;;9.67;;
5951;SDS011;3001;42.622;23.194;2022-07-06T06:34:59;10.07;;;9.23;;
5951;SDS011;3001;42.622;23.194;2022-07-06T06:37:26;10.80;;;10.00;;
5951;SDS011;3001;42.622;23.194;2022-07-06T06:39:53;10.53;;;9.77;;
5951;SDS011;3001;42.622;23.194;2022-07-06T06:42:21;10.57;;;9.73;;
5951;SDS011;3001;42.622;23.194;2022-07-06T06:44:48;10.80;;;9.80;;
5951;SDS011;3001;42.622;23.194;2022-07-06T06:47:15;9.50;;;8.80;;
5951;SDS011;3001;42.622;23.194;2022-07-06T06:49:42;10.63;;;9.73;;
5951;SDS011;3001;42.622;23.194;2022-07-06T06:52:08;10.70;;;9.80;;
5951;SDS011;3001;42.622;23.194;2022-07-06T06:54:35;11.17;;;10.10;;
5951;SDS011;3001;42.622;23.194;2022-07-06T06:57:02;11.43;;;10.33;;
5951;SDS011;3001;42.622;23.194;2022-07-06T06:59:31;10.47;;;9.67;;
5951;SDS011;3001;42.622;23.194;2022-07-06T07:01:57;10.03;;;9.23;;
5951;SDS011;3001;42.622;23.194;2022-07-06T07:04:24;9.63;;;8.93;;
5951;SDS011;3001;42.622;23.194;2022-07-06T07:06:51;11.43;;;10.43;;
5951;SDS011;3001;42.622;23.194;2022-07-06T07:09:18;11.73;;;10.77;;
5951;SDS011;3001;42.622;23.194;2022-07-06T07:11:44;12.00;;;10.83;;
5951;SDS011;3001;42.622;23.194;2022-07-06T07:14:11;11.27;;;10.43;;
5951;SDS011;3001;42.622;23.194;2022-07-06T07:16:39;12.27;;;11.27;;
5951;SDS011;3001;42.622;23.194;2022-07-06T07:19:06;13.10;;;11.90;;
5951;SDS011;3001;42.622;23.194;2022-07-06T07:21:33;13.07;;;11.80;;
5951;SDS011;3001;42.622;23.194;2022-07-06T07:23:59;13.63;;;12.43;;
5951;SDS011;3001;42.622;23.194;2022-07-06T07:26:29;13.60;;;12.37;;
5951;SDS011;3001;42.622;23.194;2022-07-06T07:28:56;14.53;;;13.23;;
5951;SDS011;3001;42.622;23.194;2022-07-06T07:31:22;13.97;;;12.77;;
5951;SDS011;3001;42.622;23.194;2022-07-06T07:33:50;14.37;;;13.10;;
5951;SDS011;3001;42.622;23.194;2022-07-06T07:36:17;13.57;;;12.40;;
5951;SDS011;3001;42.622;23.194;2022-07-06T07:38:44;14.37;;;13.17;;
5951;SDS011;3001;42.622;23.194;2022-07-06T07:41:11;13.37;;;12.37;;
5951;SDS011;3001;42.622;23.194;2022-07-06T07:43:39;14.00;;;12.90;;
5951;SDS011;3001;42.622;23.194;2022-07-06T07:46:05;14.77;;;13.37;;
5951;SDS011;3001;42.622;23.194;2022-07-06T07:48:32;15.20;;;13.63;;
5951;SDS011;3001;42.622;23.194;2022-07-06T07:51:00;16.23;;;14.53;;
5951;SDS011;3001;42.622;23.194;2022-07-06T07:53:27;15.47;;;14.10;;
5951;SDS011;3001;42.622;23.194;2022-07-06T07:55:54;19.37;;;14.97;;
5951;SDS011;3001;42.622;23.194;2022-07-06T07:58:21;15.70;;;14.30;;
5951;SDS011;3001;42.622;23.194;2022-07-06T08:00:47;14.70;;;13.40;;
5951;SDS011;3001;42.622;23.194;2022-07-06T08:03:14;14.83;;;13.63;;
5951;SDS011;3001;42.622;23.194;2022-07-06T08:05:41;15.60;;;14.10;;
5951;SDS011;3001;42.622;23.194;2022-07-06T08:08:09;17.07;;;15.20;;
5951;SDS011;3001;42.622;23.194;2022-07-06T08:10:36;15.30;;;14.00;;
5951;SDS011;3001;42.622;23.194;2022-07-06T08:13:02;15.13;;;13.73;;
5951;SDS011;3001;42.622;23.194;2022-07-06T08:15:29;16.47;;;14.77;;
5951;SDS011;3001;42.622;23.194;2022-07-06T08:17:56;13.60;;;12.50;;
5951;SDS011;3001;42.622;23.194;2022-07-06T08:20:23;14.97;;;13.67;;
5951;SDS011;3001;42.622;23.194;2022-07-06T08:22:50;15.27;;;13.97;;
5951;SDS011;3001;42.622;23.194;2022-07-06T08:25:18;13.43;;;12.47;;
5951;SDS011;3001;42.622;23.194;2022-07-06T08:27:45;14.83;;;13.53;;
5951;SDS011;3001;42.622;23.194;2022-07-06T08:30:11;13.77;;;12.60;;
5951;SDS011;3001;42.622;23.194;2022-07-06T08:32:38;14.00;;;12.93;;
5951;SDS011;3001;42.622;23.194;2022-07-06T08:35:05;13.97;;;12.77;;
5951;SDS011;3001;42.622;23.194;2022-07-06T08:37:32;14.73;;;13.33;;
5951;SDS011;3001;42.622;23.194;2022-07-06T08:40:00;16.90;;;14.63;;
5951;SDS011;3001;42.622;23.194;2022-07-06T08:42:29;16.03;;;14.47;;
5951;SDS011;3001;42.622;23.194;2022-07-06T08:44:58;15.50;;;13.97;;
5951;SDS011;3001;42.622;23.194;2022-07-06T08:47:25;14.57;;;13.03;;
5951;SDS011;3001;42.622;23.194;2022-07-06T08:49:53;16.03;;;14.63;;
5951;SDS011;3001;42.622;23.194;2022-07-06T08:52:20;16.63;;;14.87;;
5951;SDS011;3001;42.622;23.194;2022-07-06T08:54:47;14.50;;;13.23;;
5951;SDS011;3001;42.622;23.194;2022-07-06T08:57:14;15.37;;;13.97;;
5951;SDS011;3001;42.622;23.194;2022-07-06T08:59:42;15.37;;;14.00;;
5951;SDS011;3001;42.622;23.194;2022-07-06T09:02:09;16.57;;;13.43;;
5951;SDS011;3001;42.622;23.194;2022-07-06T09:04:37;13.57;;;12.47;;
5951;SDS011;3001;42.622;23.194;2022-07-06T09:07:05;14.40;;;13.00;;
5951;SDS011;3001;42.622;23.194;2022-07-06T09:09:32;15.47;;;13.97;;
5951;SDS011;3001;42.622;23.194;2022-07-06T09:11:59;13.90;;;12.80;;
5951;SDS011;3001;42.622;23.194;2022-07-06T09:14:26;14.90;;;13.60;;
5951;SDS011;3001;42.622;23.194;2022-07-06T09:17:02;13.27;;;12.00;;
5951;SDS011;3001;42.622;23.194;2022-07-06T09:19:31;13.40;;;12.10;;
5951;SDS011;3001;42.622;23.194;2022-07-06T09:21:59;13.77;;;12.73;;
5951;SDS011;3001;42.622;23.194;2022-07-06T09:24:26;14.80;;;13.60;;
5951;SDS011;3001;42.622;23.194;2022-07-06T09:26:54;16.20;;;13.43;;
5951;SDS011;3001;42.622;23.194;2022-07-06T09:29:26;13.70;;;12.60;;
5951;SDS011;3001;42.622;23.194;2022-07-06T09:31:57;12.63;;;11.53;;
5951;SDS011;3001;42.622;23.194;2022-07-06T09:34:26;13.97;;;12.87;;
5951;SDS011;3001;42.622;23.194;2022-07-06T09:37:07;13.67;;;12.33;;
5951;SDS011;3001;42.622;23.194;2022-07-06T09:39:34;13.40;;;12.40;;
5951;SDS011;3001;42.622;23.194;2022-07-06T09:42:04;14.70;;;13.40;;
5951;SDS011;3001;42.622;23.194;2022-07-06T09:44:33;14.40;;;13.30;;
5951;SDS011;3001;42.622;23.194;2022-07-06T09:47:03;13.70;;;12.60;;
5951;SDS011;3001;42.622;23.194;2022-07-06T09:49:33;14.30;;;13.00;;
5951;SDS011;3001;42.622;23.194;2022-07-06T09:52:00;13.33;;;12.33;;
5951;SDS011;3001;42.622;23.194;2022-07-06T09:54:28;14.40;;;13.30;;
5951;SDS011;3001;42.622;23.194;2022-07-06T09:56:56;15.23;;;13.90;;
5951;SDS011;3001;42.622;23.194;2022-07-06T09:59:23;15.47;;;14.07;;
5951;SDS011;3001;42.622;23.194;2022-07-06T10:01:52;15.83;;;14.33;;
5951;SDS011;3001;42.622;23.194;2022-07-06T10:04:19;15.93;;;14.33;;
5951;SDS011;3001;42.622;23.194;2022-07-06T10:06:48;15.70;;;14.30;;
5951;SDS011;3001;42.622;23.194;2022-07-06T10:09:15;15.40;;;14.10;;
5951;SDS011;3001;42.622;23.194;2022-07-06T10:11:44;15.93;;;14.30;;
5951;SDS011;3001;42.622;23.194;2022-07-06T10:14:16;17.13;;;15.63;;
5951;SDS011;3001;42.622;23.194;2022-07-06T10:16:46;17.57;;;15.87;;
5951;SDS011;3001;42.622;23.194;2022-07-06T10:19:14;17.63;;;14.90;;
5951;SDS011;3001;42.622;23.194;2022-07-06T10:21:41;16.33;;;14.83;;
5951;SDS011;3001;42.622;23.194;2022-07-06T10:24:11;16.40;;;14.80;;
5951;SDS011;3001;42.622;23.194;2022-07-06T10:26:39;16.63;;;15.00;;
5951;SDS011;3001;42.622;23.194;2022-07-06T10:29:07;13.90;;;12.90;;
5951;SDS011;3001;42.622;23.194;2022-07-06T10:31:35;15.33;;;13.87;;
5951;SDS011;3001;42.622;23.194;2022-07-06T10:34:06;13.90;;;12.83;;
5951;SDS011;3001;42.622;23.194;2022-07-06T10:36:38;15.40;;;14.10;;
5951;SDS011;3001;42.622;23.194;2022-07-06T10:39:05;13.53;;;12.27;;
5951;SDS011;3001;42.622;23.194;2022-07-06T10:41:48;12.27;;;11.40;;
5951;SDS011;3001;42.622;23.194;2022-07-06T10:44:15;11.33;;;10.53;;
5951;SDS011;3001;42.622;23.194;2022-07-06T10:46:49;11.73;;;10.83;;
5951;SDS011;3001;42.622;23.194;2022-07-06T10:49:17;12.60;;;11.60;;
5951;SDS011;3001;42.622;23.194;2022-07-06T10:51:44;13.07;;;12.07;;
5951;SDS011;3001;42.622;23.194;2022-07-06T10:54:12;14.63;;;13.20;;
5951;SDS011;3001;42.622;23.194;2022-07-06T10:56:42;14.93;;;13.43;;
5951;SDS011;3001;42.622;23.194;2022-07-06T10:59:11;15.53;;;14.03;;
5951;SDS011;3001;42.622;23.194;2022-07-06T11:01:38;13.70;;;12.70;;
5951;SDS011;3001;42.622;23.194;2022-07-06T11:04:06;14.00;;;12.80;;
5951;SDS011;3001;42.622;23.194;2022-07-06T11:06:35;14.97;;;13.67;;
5951;SDS011;3001;42.622;23.194;2022-07-06T11:09:03;13.77;;;12.47;;
5951;SDS011;3001;42.622;23.194;2022-07-06T11:11:38;14.67;;;13.27;;
5951;SDS011;3001;42.622;23.194;2022-07-06T11:14:07;13.57;;;12.43;;
5951;SDS011;3001;42.622;23.194;2022-07-06T11:16:38;13.23;;;11.93;;
5951;SDS011;3001;42.622;23.194;2022-07-06T11:19:06;14.60;;;13.40;;
5951;SDS011;3001;42.622;23.194;2022-07-06T11:21:36;14.38;;;13.07;;
5951;SDS011;3001;42.622;23.194;2022-07-06T11:24:08;15.37;;;13.97;;
5951;SDS011;3001;42.622;23.194;2022-07-06T11:26:36;15.98;;;14.45;;
5951;SDS011;3001;42.622;23.194;2022-07-06T11:29:03;16.40;;;14.70;;
5951;SDS011;3001;42.622;23.194;2022-07-06T11:31:33;16.40;;;14.87;;
5951;SDS011;3001;42.622;23.194;2022-07-06T11:34:03;17.17;;;15.80;;
5951;SDS011;3001;42.622;23.194;2022-07-06T11:36:31;18.67;;;16.87;;
5951;SDS011;3001;42.622;23.194;2022-07-06T11:38:58;18.10;;;16.20;;
5951;SDS011;3001;42.622;23.194;2022-07-06T11:41:25;17.70;;;16.10;;
5951;SDS011;3001;42.622;23.194;2022-07-06T11:43:52;16.80;;;15.20;;
5951;SDS011;3001;42.622;23.194;2022-07-06T11:46:20;17.93;;;16.27;;
5951;SDS011;3001;42.622;23.194;2022-07-06T11:48:47;16.07;;;14.83;;
5951;SDS011;3001;42.622;23.194;2022-07-06T11:51:16;14.33;;;13.23;;
5951;SDS011;3001;42.622;23.194;2022-07-06T11:53:43;16.13;;;14.83;;
5951;SDS011;3001;42.622;23.194;2022-07-06T11:56:11;16.00;;;14.40;;
5951;SDS011;3001;42.622;23.194;2022-07-06T11:58:38;14.00;;;13.00;;
5951;SDS011;3001;42.622;23.194;2022-07-06T12:01:08;14.87;;;13.67;;
5951;SDS011;3001;42.622;23.194;2022-07-06T12:03:36;16.90;;;15.40;;
5951;SDS011;3001;42.622;23.194;2022-07-06T12:06:03;18.57;;;16.93;;
5951;SDS011;3001;42.622;23.194;2022-07-06T12:08:33;18.53;;;16.63;;
5951;SDS011;3001;42.622;23.194;2022-07-06T12:11:07;17.00;;;15.43;;
5951;SDS011;3001;42.622;23.194;2022-07-06T12:13:35;17.27;;;15.77;;
5951;SDS011;3001;42.622;23.194;2022-07-06T12:16:09;16.67;;;15.10;;
5951;SDS011;3001;42.622;23.194;2022-07-06T12:18:37;17.33;;;15.83;;
5951;SDS011;3001;42.622;23.194;2022-07-06T12:21:06;17.50;;;15.97;;
5951;SDS011;3001;42.622;23.194;2022-07-06T12:23:41;15.43;;;14.13;;
5951;SDS011;3001;42.622;23.194;2022-07-06T12:26:10;14.67;;;13.53;;
5951;SDS011;3001;42.622;23.194;2022-07-06T12:28:37;15.50;;;14.30;;
5951;SDS011;3001;42.622;23.194;2022-07-06T12:31:04;14.32;;;13.32;;
5951;SDS011;3001;42.622;23.194;2022-07-06T12:33:31;12.47;;;11.77;;
5951;SDS011;3001;42.622;23.194;2022-07-06T12:36:08;15.57;;;14.20;;
5951;SDS011;3001;42.622;23.194;2022-07-06T12:38:45;12.83;;;11.93;;
5951;SDS011;3001;42.622;23.194;2022-07-06T12:41:29;13.88;;;12.95;;
5951;SDS011;3001;42.622;23.194;2022-07-06T12:44:07;15.40;;;14.03;;
5951;SDS011;3001;42.622;23.194;2022-07-06T12:46:35;14.57;;;13.27;;
5951;SDS011;3001;42.622;23.194;2022-07-06T12:49:13;14.10;;;12.70;;
5951;SDS011;3001;42.622;23.194;2022-07-06T12:51:47;12.10;;;11.13;;
5951;SDS011;3001;42.622;23.194;2022-07-06T12:54:20;12.27;;;11.33;;
5951;SDS011;3001;42.622;23.194;2022-07-06T12:59:39;12.10;;;11.40;;
5951;SDS011;3001;42.622;23.194;2022-07-06T13:02:10;12.27;;;11.53;;
5951;SDS011;3001;42.622;23.194;2022-07-06T13:04:46;11.13;;;10.63;;
5951;SDS011;3001;42.622;23.194;2022-07-06T13:07:22;12.75;;;11.98;;
5951;SDS011;3001;42.622;23.194;2022-07-06T13:09:50;12.53;;;11.73;;
5951;SDS011;3001;42.622;23.194;2022-07-06T13:12:17;11.27;;;10.67;;
5951;SDS011;3001;42.622;23.194;2022-07-06T13:14:45;10.82;;;10.13;;
5951;SDS011;3001;42.622;23.194;2022-07-06T13:17:11;10.25;;;9.65;;
5951;SDS011;3001;42.622;23.194;2022-07-06T13:19:38;9.20;;;8.80;;
5951;SDS011;3001;42.622;23.194;2022-07-06T13:22:05;8.70;;;8.30;;
5951;SDS011;3001;42.622;23.194;2022-07-06T13:24:32;7.97;;;7.67;;
5951;SDS011;3001;42.622;23.194;2022-07-06T13:27:00;8.57;;;7.85;;
5951;SDS011;3001;42.622;23.194;2022-07-06T13:29:27;7.68;;;7.38;;
5951;SDS011;3001;42.622;23.194;2022-07-06T13:31:54;6.95;;;6.65;;
5951;SDS011;3001;42.622;23.194;2022-07-06T13:34:21;8.63;;;7.18;;
5951;SDS011;3001;42.622;23.194;2022-07-06T13:36:48;7.75;;;7.25;;
5951;SDS011;3001;42.622;23.194;2022-07-06T13:39:15;6.95;;;6.35;;
5951;SDS011;3001;42.622;23.194;2022-07-06T13:41:42;6.97;;;6.60;;
5951;SDS011;3001;42.622;23.194;2022-07-06T13:44:10;6.75;;;6.35;;
5951;SDS011;3001;42.622;23.194;2022-07-06T13:46:38;6.60;;;6.32;;
5951;SDS011;3001;42.622;23.194;2022-07-06T13:49:05;6.05;;;5.55;;
5951;SDS011;3001;42.622;23.194;2022-07-06T13:51:32;5.82;;;5.25;;
5951;SDS011;3001;42.622;23.194;2022-07-06T13:53:59;5.22;;;4.93;;
5951;SDS011;3001;42.622;23.194;2022-07-06T13:56:26;4.47;;;4.13;;
5951;SDS011;3001;42.622;23.194;2022-07-06T13:58:53;3.45;;;3.35;;
5951;SDS011;3001;42.622;23.194;2022-07-06T14:01:22;3.22;;;3.13;;
5951;SDS011;3001;42.622;23.194;2022-07-06T14:03:48;3.17;;;3.08;;
5951;SDS011;3001;42.622;23.194;2022-07-06T14:06:16;3.20;;;3.00;;
5951;SDS011;3001;42.622;23.194;2022-07-06T14:08:43;3.25;;;3.10;;
5951;SDS011;3001;42.622;23.194;2022-07-06T14:11:10;3.53;;;3.33;;
5951;SDS011;3001;42.622;23.194;2022-07-06T14:13:37;3.33;;;3.22;;
5951;SDS011;3001;42.622;23.194;2022-07-06T14:16:04;3.42;;;3.33;;
5951;SDS011;3001;42.622;23.194;2022-07-06T14:18:33;3.42;;;3.28;;
5951;SDS011;3001;42.622;23.194;2022-07-06T14:20:59;3.78;;;3.67;;
5951;SDS011;3001;42.622;23.194;2022-07-06T14:23:26;3.08;;;2.88;;
5951;SDS011;3001;42.622;23.194;2022-07-06T14:25:54;3.22;;;3.08;;
5951;SDS011;3001;42.622;23.194;2022-07-06T14:28:21;3.10;;;3.00;;
5951;SDS011;3001;42.622;23.194;2022-07-06T14:30:48;2.92;;;2.83;;
5951;SDS011;3001;42.622;23.194;2022-07-06T14:33:15;2.97;;;2.88;;
5951;SDS011;3001;42.622;23.194;2022-07-06T14:35:44;3.15;;;3.05;;
5951;SDS011;3001;42.622;23.194;2022-07-06T14:38:13;3.35;;;3.25;;
5951;SDS011;3001;42.622;23.194;2022-07-06T14:40:40;3.10;;;3.00;;
5951;SDS011;3001;42.622;23.194;2022-07-06T14:43:07;2.97;;;2.78;;
5951;SDS011;3001;42.622;23.194;2022-07-06T14:45:35;3.03;;;2.92;;
5951;SDS011;3001;42.622;23.194;2022-07-06T14:48:02;3.30;;;3.10;;
5951;SDS011;3001;42.622;23.194;2022-07-06T14:50:30;2.90;;;2.80;;
5951;SDS011;3001;42.622;23.194;2022-07-06T14:52:58;2.70;;;2.60;;